Time;durP1;ratioP1;P1;durP2;ratioP2;P2;SDS_P1;SDS_P2;PMS_P1;PMS_P2;Temp;Humidity;BMP_temperature;BMP_pressure;BME280_temperature;BME280_humidity;BME280_pressure;Samples;Min_cycle;Max_cycle;Signal;HPM_P1;HPM_P2
2023/07/07 00:01:04;;;;;;;5.47;1.87;;;12.10;99.90;;;;;;7362347;32;20103;-56
2023/07/07 00:05:06;;;;;;;7.93;2.08;;;12.00;99.90;;;;;;7368943;32;20391;-56
2023/07/07 00:09:08;;;;;;;4.25;2.10;;;12.00;99.90;;;;;;7372740;32;20111;-55
2023/07/07 00:13:11;;;;;;;3.00;1.60;;;12.00;99.90;;;;;;7373498;32;20205;-55
2023/07/07 00:17:15;;;;;;;6.53;2.10;;;12.00;99.90;;;;;;7376478;32;20103;-57
2023/07/07 00:21:17;;;;;;;4.70;1.90;;;12.00;99.90;;;;;;7380204;32;20165;-55
2023/07/07 00:25:19;;;;;;;6.07;1.80;;;12.00;99.90;;;;;;7375158;32;20095;-56
2023/07/07 00:29:21;;;;;;;3.78;1.77;;;11.90;99.90;;;;;;7372881;32;20498;-56
2023/07/07 00:33:24;;;;;;;4.87;1.95;;;11.90;99.90;;;;;;7366559;32;20099;-55
2023/07/07 00:37:25;;;;;;;5.47;1.90;;;11.90;99.90;;;;;;7377883;32;20201;-55
2023/07/07 00:41:28;;;;;;;3.00;1.75;;;11.80;99.90;;;;;;7362812;32;20171;-55
2023/07/07 00:45:29;;;;;;;4.10;1.58;;;11.80;99.90;;;;;;7371695;32;20102;-55
2023/07/07 00:49:33;;;;;;;6.00;2.20;;;11.70;99.90;;;;;;7377017;32;20208;-55
2023/07/07 00:53:37;;;;;;;5.35;2.15;;;11.70;99.90;;;;;;7380353;32;20881;-55
2023/07/07 00:57:39;;;;;;;5.43;1.65;;;11.60;99.90;;;;;;7375206;32;20197;-55
2023/07/07 01:01:41;;;;;;;8.30;2.28;;;11.70;99.90;;;;;;7380502;32;20529;-56
2023/07/07 01:05:44;;;;;;;7.32;2.37;;;11.70;99.90;;;;;;7379770;32;20130;-54
2023/07/07 01:09:46;;;;;;;6.10;1.87;;;11.60;99.90;;;;;;7381110;32;20110;-55
2023/07/07 01:13:48;;;;;;;7.68;2.12;;;11.60;99.90;;;;;;7364304;32;20202;-54
2023/07/07 01:18:19;;;;;;;7.00;2.62;;;11.60;99.90;;;;;;7375574;32;20174;-55
2023/07/07 01:23:02;;;;;;;6.05;1.90;;;11.60;99.90;;;;;;7371079;32;20170;-55
2023/07/07 01:27:04;;;;;;;5.95;2.12;;;11.60;99.90;;;;;;7375632;32;20878;-55
2023/07/07 01:31:19;;;;;;;6.40;1.80;;;11.50;99.90;;;;;;7375839;32;20228;-55
2023/07/07 01:35:22;;;;;;;5.60;2.05;;;11.50;99.90;;;;;;7370501;32;20365;-55
2023/07/07 01:39:25;;;;;;;6.62;2.00;;;11.50;99.90;;;;;;7378573;32;20102;-56
2023/07/07 01:43:36;;;;;;;6.87;2.15;;;11.30;99.90;;;;;;7372356;32;20107;-54
2023/07/07 01:47:39;;;;;;;6.22;1.90;;;11.30;99.90;;;;;;7368712;32;20107;-54
2023/07/07 01:52:02;;;;;;;4.45;2.10;;;11.30;99.90;;;;;;7369928;32;20541;-55
2023/07/07 01:56:05;;;;;;;7.78;1.90;;;11.30;99.90;;;;;;7366087;32;20107;-55
2023/07/07 02:00:09;;;;;;;10.10;2.37;;;11.40;99.90;;;;;;7380773;32;20265;-55
2023/07/07 02:04:11;;;;;;;6.82;1.92;;;11.30;99.90;;;;;;7365641;32;20103;-55
2023/07/07 02:08:13;;;;;;;5.10;2.20;;;11.30;99.90;;;;;;7378431;32;20138;-55
2023/07/07 02:12:15;;;;;;;6.95;1.80;;;11.30;99.90;;;;;;7374059;32;20198;-55
2023/07/07 02:16:17;;;;;;;3.60;2.00;;;11.20;99.90;;;;;;7366956;32;20102;-56
2023/07/07 02:20:19;;;;;;;6.00;1.65;;;11.20;99.90;;;;;;7371156;32;20112;-54
2023/07/07 02:24:20;;;;;;;7.55;2.10;;;11.10;99.90;;;;;;7378103;32;20111;-55
2023/07/07 02:28:22;;;;;;;4.30;1.92;;;11.10;99.90;;;;;;7379586;32;20131;-55
2023/07/07 02:32:25;;;;;;;5.53;2.30;;;11.10;99.90;;;;;;7371361;32;20239;-57
2023/07/07 02:36:27;;;;;;;6.95;2.10;;;11.10;99.90;;;;;;7368614;32;20103;-55
2023/07/07 02:40:29;;;;;;;3.12;1.90;;;11.10;99.90;;;;;;7371027;32;20476;-55
2023/07/07 02:44:31;;;;;;;4.45;2.30;;;11.00;99.90;;;;;;7379400;32;20134;-55
2023/07/07 02:48:33;;;;;;;5.28;1.73;;;11.00;99.90;;;;;;7371729;32;20167;-56
2023/07/07 02:52:34;;;;;;;7.47;1.90;;;11.00;99.90;;;;;;7372106;32;20171;-56
2023/07/07 02:56:36;;;;;;;5.90;1.80;;;11.00;99.90;;;;;;7373209;32;20107;-56
2023/07/07 03:00:38;;;;;;;5.87;1.77;;;11.00;99.90;;;;;;7379680;32;20103;-54
2023/07/07 03:04:40;;;;;;;7.07;1.70;;;11.00;99.90;;;;;;7376429;32;20610;-54
2023/07/07 03:08:42;;;;;;;7.30;1.80;;;11.00;99.90;;;;;;7372395;32;20152;-54
2023/07/07 03:12:44;;;;;;;4.78;2.28;;;11.00;99.90;;;;;;7377423;32;20103;-54
2023/07/07 03:16:51;;;;;;;3.97;1.90;;;11.00;99.90;;;;;;7378134;32;20224;-54
2023/07/07 03:20:53;;;;;;;3.47;1.60;;;10.90;99.90;;;;;;7372138;32;20157;-54
2023/07/07 03:24:55;;;;;;;3.42;1.65;;;10.90;99.90;;;;;;7371940;32;20671;-54
2023/07/07 03:28:57;;;;;;;6.90;1.87;;;10.80;99.90;;;;;;7378846;32;20174;-54
2023/07/07 03:32:58;;;;;;;6.78;1.62;;;10.80;99.90;;;;;;7381581;32;20567;-56
2023/07/07 03:37:00;;;;;;;6.55;1.92;;;10.80;99.90;;;;;;7376292;32;20133;-54
2023/07/07 03:41:02;;;;;;;3.78;1.77;;;10.80;99.90;;;;;;7381075;32;20121;-55
2023/07/07 03:45:05;;;;;;;4.55;1.62;;;10.80;99.90;;;;;;7380159;32;20188;-55
2023/07/07 03:49:07;;;;;;;3.30;1.70;;;10.70;99.90;;;;;;7377806;32;20197;-55
2023/07/07 03:53:09;;;;;;;3.62;1.37;;;10.70;99.90;;;;;;7375467;32;20130;-55
2023/07/07 03:57:11;;;;;;;4.55;1.85;;;10.50;99.90;;;;;;7373905;32;20179;-55
2023/07/07 04:01:13;;;;;;;7.45;2.10;;;10.60;99.90;;;;;;7372811;32;20112;-55
2023/07/07 04:05:15;;;;;;;6.15;1.73;;;10.50;99.90;;;;;;7373864;32;20130;-55
2023/07/07 04:09:17;;;;;;;5.10;1.98;;;10.50;99.90;;;;;;7373681;32;20118;-55
2023/07/07 04:13:19;;;;;;;3.03;1.62;;;10.60;99.90;;;;;;7377203;32;20616;-55
2023/07/07 04:17:21;;;;;;;3.42;1.77;;;10.60;99.90;;;;;;7373578;32;20135;-54
2023/07/07 04:21:28;;;;;;;3.12;1.50;;;10.50;99.90;;;;;;7372897;32;20213;-55
2023/07/07 04:25:29;;;;;;;5.25;1.70;;;10.70;99.90;;;;;;7361757;32;20145;-55
2023/07/07 04:29:32;;;;;;;2.70;1.85;;;10.70;99.90;;;;;;7376682;32;20485;-55
2023/07/07 04:33:35;;;;;;;3.62;1.65;;;10.80;99.90;;;;;;7367944;32;20153;-55
2023/07/07 04:37:37;;;;;;;3.28;1.70;;;11.10;99.90;;;;;;7372518;32;20134;-55
2023/07/07 04:41:38;;;;;;;7.93;2.20;;;11.30;99.90;;;;;;7375761;32;20115;-55
2023/07/07 04:45:40;;;;;;;4.62;1.80;;;11.60;99.90;;;;;;7351241;32;20503;-55
2023/07/07 04:49:42;;;;;;;3.50;1.52;;;11.70;99.90;;;;;;7373439;32;20222;-56
2023/07/07 04:53:44;;;;;;;3.00;1.35;;;12.00;99.90;;;;;;7367985;32;20598;-56
2023/07/07 04:57:46;;;;;;;4.25;1.40;;;12.50;99.90;;;;;;7367205;32;20224;-56
2023/07/07 05:01:48;;;;;;;9.10;1.60;;;13.10;99.90;;;;;;7368281;32;20121;-57
2023/07/07 05:05:50;;;;;;;4.15;1.50;;;13.80;99.90;;;;;;7367840;32;20156;-57
2023/07/07 05:09:52;;;;;;;2.62;1.50;;;14.40;99.90;;;;;;7374935;32;20430;-56
2023/07/07 05:13:55;;;;;;;4.55;1.92;;;15.10;99.90;;;;;;7372426;32;20111;-56
2023/07/07 05:17:56;;;;;;;6.80;1.80;;;15.90;99.90;;;;;;7375817;32;20284;-56
2023/07/07 05:22:01;;;;;;;6.20;1.60;;;16.30;99.90;;;;;;7380228;32;20142;-57
2023/07/07 05:26:04;;;;;;;42.78;8.05;;;17.10;99.90;;;;;;7379891;32;20134;-56
2023/07/07 05:30:06;;;;;;;52.20;10.50;;;17.50;99.90;;;;;;7365008;32;20122;-56
2023/07/07 05:34:08;;;;;;;48.90;10.15;;;18.00;99.90;;;;;;7373646;32;20596;-57
2023/07/07 05:38:10;;;;;;;19.90;4.65;;;18.60;99.90;;;;;;7368737;32;20598;-57
2023/07/07 05:42:11;;;;;;;8.73;2.10;;;19.10;99.90;;;;;;7375590;32;20163;-56
2023/07/07 05:46:15;;;;;;;6.10;1.25;;;19.50;99.90;;;;;;7375528;32;20133;-57
2023/07/07 05:50:17;;;;;;;5.40;1.80;;;20.00;99.90;;;;;;7364621;32;20149;-57
2023/07/07 05:54:21;;;;;;;4.90;2.05;;;20.30;99.90;;;;;;7370299;32;20107;-56
2023/07/07 05:58:22;;;;;;;6.32;1.85;;;20.90;99.90;;;;;;7371610;32;20107;-57
2023/07/07 06:02:24;;;;;;;4.60;1.60;;;21.20;99.90;;;;;;7379407;32;20125;-56
2023/07/07 06:06:26;;;;;;;6.30;1.20;;;21.60;99.90;;;;;;7375789;32;20153;-56
2023/07/07 06:10:28;;;;;;;4.43;1.90;;;22.20;99.90;;;;;;7371206;32;20171;-56
2023/07/07 06:14:30;;;;;;;5.45;1.70;;;22.50;99.90;;;;;;7369677;32;20099;-57
2023/07/07 06:18:32;;;;;;;5.95;1.95;;;23.00;99.90;;;;;;7374472;32;20156;-55
2023/07/07 06:22:33;;;;;;;5.60;1.80;;;23.60;99.90;;;;;;7370445;32;20505;-57
2023/07/07 06:26:35;;;;;;;5.15;1.70;;;24.00;99.90;;;;;;7369663;32;20104;-57
2023/07/07 06:30:37;;;;;;;2.58;1.30;;;24.30;99.90;;;;;;7365732;32;20217;-57
2023/07/07 06:34:39;;;;;;;3.78;1.30;;;24.60;99.90;;;;;;7379479;32;20119;-57
2023/07/07 06:38:40;;;;;;;3.92;1.20;;;24.90;99.90;;;;;;7376602;32;20110;-57
2023/07/07 06:42:42;;;;;;;2.42;1.20;;;25.30;99.90;;;;;;7370035;32;20128;-57
2023/07/07 06:46:44;;;;;;;4.05;1.30;;;25.70;99.90;;;;;;7377807;32;20126;-57
2023/07/07 06:50:46;;;;;;;3.12;1.00;;;25.80;99.90;;;;;;7375987;32;20115;-57
2023/07/07 06:54:47;;;;;;;2.87;1.20;;;25.90;99.90;;;;;;7378387;32;20509;-57
2023/07/07 06:58:49;;;;;;;6.07;1.60;;;26.20;99.90;;;;;;7370592;32;20111;-57
2023/07/07 07:02:51;;;;;;;3.80;1.20;;;25.90;99.90;;;;;;7366706;32;20135;-57
2023/07/07 07:06:53;;;;;;;7.22;1.10;;;26.20;99.90;;;;;;7363782;32;20175;-57
2023/07/07 07:10:55;;;;;;;2.47;1.00;;;26.60;99.90;;;;;;7382121;32;20362;-57
2023/07/07 07:14:57;;;;;;;2.95;1.30;;;26.80;99.90;;;;;;7378274;32;20214;-57
2023/07/07 07:18:59;;;;;;;2.50;1.08;;;27.00;99.90;;;;;;7376510;32;20485;-57
2023/07/07 07:23:01;;;;;;;2.58;1.10;;;27.00;99.90;;;;;;7372515;32;20465;-57
2023/07/07 07:27:04;;;;;;;2.17;1.17;;;26.90;95.70;;;;;;7377408;32;20556;-57
2023/07/07 07:31:06;;;;;;;2.35;1.00;;;27.00;98.00;;;;;;7379103;32;20126;-57
2023/07/07 07:35:10;;;;;;;2.30;1.10;;;27.20;95.80;;;;;;7362500;32;20162;-57
2023/07/07 07:39:12;;;;;;;3.95;1.15;;;27.10;93.00;;;;;;7378372;32;20134;-57
2023/07/07 07:43:14;;;;;;;2.53;1.10;;;26.60;90.50;;;;;;7376378;32;20615;-57
2023/07/07 07:47:16;;;;;;;7.35;1.30;;;26.10;94.80;;;;;;7379909;32;20119;-57
2023/07/07 07:51:19;;;;;;;3.55;0.98;;;25.50;92.40;;;;;;7379203;32;20210;-57
2023/07/07 07:55:37;;;;;;;2.97;1.00;;;25.10;94.10;;;;;;7373016;32;20198;-57
2023/07/07 07:59:39;;;;;;;2.58;1.00;;;24.80;97.30;;;;;;7377070;32;20566;-57
2023/07/07 08:03:41;;;;;;;2.53;0.80;;;24.60;95.40;;;;;;7373207;32;20236;-57
2023/07/07 08:07:43;;;;;;;5.20;0.88;;;24.80;94.60;;;;;;7379854;32;20111;-57
2023/07/07 08:11:48;;;;;;;3.33;1.20;;;25.20;92.60;;;;;;7369290;32;20115;-57
2023/07/07 08:15:50;;;;;;;1.95;1.17;;;25.60;92.60;;;;;;7374962;32;20474;-57
2023/07/07 08:19:53;;;;;;;2.20;1.08;;;26.10;91.40;;;;;;7378509;32;20134;-57
2023/07/07 08:23:55;;;;;;;2.92;1.12;;;26.70;93.10;;;;;;7357836;32;20164;-57
2023/07/07 08:27:57;;;;;;;2.20;0.90;;;27.00;91.10;;;;;;7375269;32;20534;-57
2023/07/07 08:32:02;;;;;;;1.25;0.88;;;27.50;91.30;;;;;;7381799;32;20103;-57
2023/07/07 08:36:04;;;;;;;3.62;1.00;;;28.10;94.00;;;;;;7358807;32;20307;-57
2023/07/07 08:40:09;;;;;;;3.40;1.00;;;28.40;90.60;;;;;;7378673;32;20127;-56
2023/07/07 08:44:14;;;;;;;2.70;1.17;;;28.70;82.90;;;;;;7377433;32;20250;-56
2023/07/07 08:48:36;;;;;;;2.10;1.08;;;28.80;78.70;;;;;;7361325;32;20135;-56
2023/07/07 08:52:53;;;;;;;2.70;1.08;;;29.10;87.40;;;;;;7354660;32;20676;-57
2023/07/07 08:57:13;;;;;;;1.62;1.08;;;29.20;77.60;;;;;;7372695;32;20163;-57
2023/07/07 09:01:24;;;;;;;3.50;1.15;;;29.70;90.50;;;;;;7364538;32;20106;-57
2023/07/07 09:05:42;;;;;;;3.30;1.48;;;30.10;84.30;;;;;;7372265;32;20111;-56
2023/07/07 09:10:03;;;;;;;1.58;1.02;;;29.80;70.70;;;;;;7360967;32;20501;-56
2023/07/07 09:14:08;;;;;;;2.05;1.10;;;30.30;72.40;;;;;;7372355;32;20133;-56
2023/07/07 09:18:23;;;;;;;2.27;1.20;;;30.80;81.60;;;;;;7357025;32;20102;-57
2023/07/07 09:22:35;;;;;;;4.62;1.10;;;31.10;79.20;;;;;;7372015;32;20107;-57
2023/07/07 09:26:38;;;;;;;4.18;1.10;;;31.30;72.10;;;;;;7356813;32;20640;-57
2023/07/07 09:30:46;;;;;;;2.22;0.98;;;31.40;72.50;;;;;;7369835;32;20457;-57
2023/07/07 09:34:48;;;;;;;4.70;1.42;;;31.10;65.70;;;;;;7371806;32;20312;-57
2023/07/07 09:39:12;;;;;;;2.60;1.02;;;30.80;67.10;;;;;;7371303;32;20377;-57
2023/07/07 09:43:37;;;;;;;2.33;1.30;;;31.00;68.20;;;;;;7378789;32;20110;-57
2023/07/07 09:48:27;;;;;;;1.58;1.12;;;30.90;66.90;;;;;;7363041;32;20137;-57
2023/07/07 09:52:38;;;;;;;3.60;1.30;;;31.00;68.50;;;;;;7344988;32;20114;-57
2023/07/07 09:56:58;;;;;;;3.20;1.40;;;30.00;61.20;;;;;;7381193;32;20174;-57
2023/07/07 10:01:02;;;;;;;5.00;1.40;;;30.50;68.60;;;;;;7364947;32;20298;-57
2023/07/07 10:05:07;;;;;;;2.47;1.60;;;28.90;63.30;;;;;;7373079;32;20469;-58
2023/07/07 10:09:11;;;;;;;3.25;1.50;;;29.10;64.60;;;;;;7376509;32;20544;-57
2023/07/07 10:13:14;;;;;;;3.87;1.50;;;29.90;70.50;;;;;;7376931;32;20136;-57
2023/07/07 10:17:45;;;;;;;3.25;1.73;;;29.50;64.60;;;;;;7372836;32;20581;-57
2023/07/07 10:21:47;;;;;;;2.92;1.37;;;30.20;69.40;;;;;;7378880;32;20193;-57
2023/07/07 10:25:49;;;;;;;3.53;1.17;;;30.70;62.30;;;;;;7382077;32;20556;-57
2023/07/07 10:29:57;;;;;;;3.10;1.37;;;31.10;58.10;;;;;;7378669;32;20147;-57
2023/07/07 10:34:31;;;;;;;4.57;1.62;;;31.00;69.40;;;;;;7381781;32;20129;-57
2023/07/07 10:38:32;;;;;;;2.37;1.25;;;30.70;56.80;;;;;;7374234;32;20129;-57
2023/07/07 10:42:42;;;;;;;2.97;1.60;;;30.70;61.30;;;;;;7384781;32;20548;-56
2023/07/07 10:46:44;;;;;;;3.35;1.35;;;30.90;57.20;;;;;;7384293;32;20159;-57
2023/07/07 10:51:31;;;;;;;2.72;1.33;;;30.60;59.00;;;;;;7377239;32;20619;-57
2023/07/07 10:55:43;;;;;;;2.78;1.23;;;30.40;62.90;;;;;;7363967;32;20595;-57
2023/07/07 10:59:57;;;;;;;3.45;1.50;;;30.40;56.80;;;;;;7375756;32;20148;-57
2023/07/07 11:04:01;;;;;;;4.12;1.60;;;30.40;61.10;;;;;;7382407;32;20131;-57
2023/07/07 11:08:12;;;;;;;2.75;1.60;;;29.90;59.20;;;;;;7381231;32;20220;-57
2023/07/07 11:12:23;;;;;;;2.17;1.40;;;30.40;58.90;;;;;;7370459;32;20130;-57
2023/07/07 11:16:47;;;;;;;4.37;1.50;;;30.40;59.50;;;;;;7377276;32;20388;-58
2023/07/07 11:20:48;;;;;;;2.40;1.20;;;29.50;55.50;;;;;;7377424;32;20146;-57
2023/07/07 11:24:57;;;;;;;3.70;1.33;;;29.90;59.50;;;;;;7366161;32;20154;-57
2023/07/07 11:29:15;;;;;;;3.55;1.45;;;29.70;57.10;;;;;;7380844;32;20123;-57
2023/07/07 11:33:31;;;;;;;3.72;1.50;;;29.60;58.30;;;;;;7376418;32;20100;-57
2023/07/07 11:37:45;;;;;;;;;;;29.50;60.40;;;;;;7376098;32;20202;-57
2023/07/07 11:41:59;;;;;;;6.50;1.52;;;29.30;59.10;;;;;;7379975;32;20109;-57
2023/07/07 11:46:32;;;;;;;3.42;1.58;;;29.20;57.20;;;;;;7368768;32;20132;-57
2023/07/07 11:50:53;;;;;;;1.83;1.30;;;29.50;54.70;;;;;;7371377;32;20505;-57
2023/07/07 11:55:16;;;;;;;4.85;1.50;;;29.40;57.80;;;;;;7370243;32;20174;-57
2023/07/07 11:59:46;;;;;;;2.55;1.30;;;29.70;59.00;;;;;;7375590;32;20268;-57
2023/07/07 12:04:05;;;;;;;5.53;1.60;;;30.00;58.80;;;;;;7381704;32;20197;-58
2023/07/07 12:08:15;;;;;;;2.08;1.30;;;30.00;60.10;;;;;;7378995;32;20107;-58
2023/07/07 12:12:38;;;;;;;2.85;1.40;;;30.00;55.90;;;;;;7371738;32;20262;-57
2023/07/07 12:16:43;;;;;;;3.92;1.35;;;30.40;53.50;;;;;;7378918;32;20126;-57
2023/07/07 12:20:49;;;;;;;1.90;1.40;;;30.00;54.50;;;;;;7372516;32;20464;-58
2023/07/07 12:25:28;;;;;;;2.70;1.70;;;30.40;55.60;;;;;;7368363;32;20146;-57
2023/07/07 12:29:30;;;;;;;1.75;1.50;;;30.60;57.70;;;;;;7369953;32;20128;-57
2023/07/07 12:33:40;;;;;;;2.22;1.35;;;30.80;56.70;;;;;;7375429;32;20106;-57
2023/07/07 12:37:43;;;;;;;2.60;1.52;;;30.50;53.60;;;;;;7376907;32;20115;-58
2023/07/07 12:41:45;;;;;;;4.95;1.55;;;30.80;55.30;;;;;;7370619;32;20110;-58
2023/07/07 12:45:48;;;;;;;2.92;1.60;;;30.50;53.40;;;;;;7377388;32;20119;-57
2023/07/07 12:49:53;;;;;;;2.33;1.60;;;30.30;55.60;;;;;;7365948;32;20100;-57
2023/07/07 12:53:56;;;;;;;2.12;1.40;;;30.60;54.60;;;;;;7358824;32;20140;-57
2023/07/07 12:57:58;;;;;;;3.97;1.60;;;30.30;54.50;;;;;;7366651;32;20595;-57
2023/07/07 13:02:19;;;;;;;2.60;1.52;;;30.90;55.00;;;;;;7372434;32;20099;-57
2023/07/07 13:06:33;;;;;;;6.37;1.52;;;30.80;53.50;;;;;;7374493;32;20130;-57
2023/07/07 13:10:40;;;;;;;2.72;1.50;;;30.90;56.80;;;;;;7372137;32;20134;-58
2023/07/07 13:14:43;;;;;;;2.70;1.20;;;30.90;49.50;;;;;;7374096;32;20498;-57
2023/07/07 13:18:44;;;;;;;2.47;1.50;;;30.90;53.50;;;;;;7371589;32;20199;-57
2023/07/07 13:23:05;;;;;;;6.72;1.73;;;30.80;50.40;;;;;;7370744;32;20110;-57
2023/07/07 13:27:26;;;;;;;2.67;1.70;;;30.60;50.10;;;;;;7353769;32;20160;-57
2023/07/07 13:31:35;;;;;;;2.75;1.50;;;30.50;52.00;;;;;;7355388;32;20118;-57
2023/07/07 13:35:41;;;;;;;3.50;1.50;;;30.80;52.30;;;;;;7378299;32;20107;-57
2023/07/07 13:39:44;;;;;;;3.33;1.60;;;30.40;52.20;;;;;;7369484;32;20452;-57
2023/07/07 13:43:52;;;;;;;3.10;1.37;;;30.20;56.40;;;;;;7372514;32;20490;-58
2023/07/07 13:47:54;;;;;;;3.37;1.67;;;30.40;55.30;;;;;;7375865;32;20511;-57
2023/07/07 13:51:56;;;;;;;4.40;1.50;;;30.20;52.50;;;;;;7378183;32;20151;-57
2023/07/07 13:55:58;;;;;;;5.07;1.48;;;29.80;50.60;;;;;;7363968;32;20206;-57
2023/07/07 14:00:00;;;;;;;6.32;2.17;;;30.20;56.20;;;;;;7365935;32;20107;-58
2023/07/07 14:04:07;;;;;;;3.58;1.50;;;30.00;54.10;;;;;;7378178;32;20206;-57
2023/07/07 14:08:19;;;;;;;4.45;1.62;;;30.70;49.30;;;;;;7358050;32;20576;-57
2023/07/07 14:12:25;;;;;;;2.53;1.67;;;30.80;50.60;;;;;;7370408;32;20137;-57
2023/07/07 14:16:42;;;;;;;2.47;1.27;;;30.90;52.30;;;;;;7377448;32;20197;-58
2023/07/07 14:20:49;;;;;;;2.92;1.48;;;31.10;52.40;;;;;;7369947;32;20230;-57
2023/07/07 14:24:51;;;;;;;3.08;1.58;;;31.50;48.30;;;;;;7369543;32;20130;-57
2023/07/07 14:28:55;;;;;;;4.05;1.58;;;31.50;46.50;;;;;;7370558;32;20164;-57
2023/07/07 14:33:00;;;;;;;3.12;1.50;;;31.90;51.10;;;;;;7371939;32;20671;-57
2023/07/07 14:37:04;;;;;;;4.05;1.42;;;32.00;45.90;;;;;;7375629;32;20119;-57
2023/07/07 14:41:18;;;;;;;4.93;1.70;;;32.00;48.90;;;;;;7381740;32;20107;-57
2023/07/07 14:45:33;;;;;;;3.95;1.50;;;32.20;51.00;;;;;;7368675;32;20786;-57
2023/07/07 14:49:35;;;;;;;2.58;1.37;;;32.10;48.10;;;;;;7368703;32;20465;-58
2023/07/07 14:53:37;;;;;;;2.50;1.70;;;32.20;48.00;;;;;;7378962;32;20238;-58
2023/07/07 14:57:42;;;;;;;2.20;1.35;;;32.40;46.50;;;;;;7369311;32;20478;-57
2023/07/07 15:01:57;;;;;;;2.40;1.47;;;32.60;46.90;;;;;;7365965;32;20107;-58
2023/07/07 15:06:04;;;;;;;2.67;1.42;;;30.80;45.80;;;;;;7381380;32;20198;-58
2023/07/07 15:10:07;;;;;;;2.08;1.35;;;30.80;46.00;;;;;;7372667;32;20119;-57
2023/07/07 15:14:13;;;;;;;2.97;1.60;;;31.30;47.10;;;;;;7369623;32;20111;-57
2023/07/07 15:18:15;;;;;;;3.97;1.75;;;32.10;46.40;;;;;;7371780;32;20277;-58
2023/07/07 15:22:16;;;;;;;2.40;1.60;;;32.40;43.30;;;;;;7361696;32;20213;-58
2023/07/07 15:26:38;;;;;;;2.42;1.37;;;32.20;47.40;;;;;;7378826;32;20103;-58
2023/07/07 15:30:39;;;;;;;1.92;1.30;;;31.60;44.10;;;;;;7369035;32;20130;-58
2023/07/07 15:34:41;;;;;;;2.10;1.60;;;30.80;46.90;;;;;;7382438;32;20240;-58
2023/07/07 15:38:43;;;;;;;2.78;1.35;;;30.20;48.80;;;;;;7379282;32;20103;-58
2023/07/07 15:42:47;;;;;;;3.28;1.12;;;30.00;47.20;;;;;;7375798;32;20102;-58
2023/07/07 15:46:48;;;;;;;3.10;1.62;;;29.60;46.90;;;;;;7375373;32;20616;-58
2023/07/07 15:50:51;;;;;;;4.28;1.30;;;29.60;46.00;;;;;;7381812;32;20625;-58
2023/07/07 15:54:53;;;;;;;3.40;1.65;;;29.40;45.90;;;;;;7369977;32;20124;-58
2023/07/07 15:58:55;;;;;;;2.72;1.60;;;29.40;46.00;;;;;;7375832;32;20121;-58
2023/07/07 16:02:58;;;;;;;3.08;1.50;;;29.40;46.00;;;;;;7377895;32;20106;-57
2023/07/07 16:07:00;;;;;;;2.15;1.40;;;29.40;46.10;;;;;;7380888;32;20119;-57
2023/07/07 16:11:19;;;;;;;1.90;1.50;;;29.20;46.40;;;;;;7362994;32;20110;-57
2023/07/07 16:15:21;;;;;;;5.57;1.65;;;29.20;45.10;;;;;;7367837;32;20100;-57
2023/07/07 16:19:26;;;;;;;13.70;2.00;;;29.00;46.40;;;;;;7381468;32;20115;-58
2023/07/07 16:23:27;;;;;;;3.58;1.80;;;28.30;47.50;;;;;;7365860;32;20123;-57
2023/07/07 16:27:29;;;;;;;2.47;1.45;;;28.20;46.80;;;;;;7378856;32;20111;-57
2023/07/07 16:31:31;;;;;;;4.60;1.50;;;27.90;45.60;;;;;;7367537;32;20141;-57
2023/07/07 16:35:36;;;;;;;3.10;1.52;;;28.20;49.90;;;;;;7368740;32;20123;-57
2023/07/07 16:39:38;;;;;;;2.67;1.80;;;28.20;47.60;;;;;;7360431;32;20199;-57
2023/07/07 16:43:40;;;;;;;2.55;1.65;;;28.40;47.60;;;;;;7371454;32;20099;-58
2023/07/07 16:47:43;;;;;;;4.37;2.00;;;28.40;47.50;;;;;;7370661;32;20707;-56
2023/07/07 16:51:45;;;;;;;3.33;1.65;;;28.50;46.40;;;;;;7356309;32;20108;-57
2023/07/07 16:55:47;;;;;;;2.58;1.67;;;28.30;48.50;;;;;;7372494;32;20459;-57
2023/07/07 16:59:49;;;;;;;4.30;1.83;;;28.20;47.40;;;;;;7362410;32;20198;-57
2023/07/07 17:03:50;;;;;;;2.40;1.55;;;28.20;48.00;;;;;;7372644;32;20505;-57
2023/07/07 17:07:52;;;;;;;4.43;1.73;;;28.00;49.60;;;;;;7375308;32;20110;-57
2023/07/07 17:11:54;;;;;;;2.47;1.60;;;27.50;47.90;;;;;;7365395;32;20141;-59
2023/07/07 17:15:56;;;;;;;3.47;2.03;;;27.50;49.10;;;;;;7382317;32;20145;-57
2023/07/07 17:19:58;;;;;;;2.62;1.85;;;27.30;46.30;;;;;;7369081;32;20111;-57
2023/07/07 17:23:59;;;;;;;3.75;1.90;;;27.30;47.00;;;;;;7367128;32;20115;-57
2023/07/07 17:28:01;;;;;;;4.72;2.35;;;27.20;47.20;;;;;;7378546;32;20502;-57
2023/07/07 17:32:03;;;;;;;2.83;1.98;;;27.10;47.60;;;;;;7375246;32;20141;-57
2023/07/07 17:36:26;;;;;;;3.30;2.12;;;27.10;48.10;;;;;;7365381;32;20132;-57
2023/07/07 17:40:37;;;;;;;3.92;2.25;;;27.10;47.90;;;;;;7364193;32;20126;-57
2023/07/07 17:44:39;;;;;;;3.60;2.35;;;27.00;47.50;;;;;;7365882;32;20104;-57
2023/07/07 17:48:41;;;;;;;4.40;2.30;;;26.90;49.30;;;;;;7371411;32;20115;-57
2023/07/07 17:52:43;;;;;;;6.75;2.28;;;26.90;53.70;;;;;;7367595;32;20133;-58
2023/07/07 17:56:45;;;;;;;5.35;2.45;;;26.90;49.70;;;;;;7360840;32;20155;-57
2023/07/07 18:00:47;;;;;;;4.57;3.53;;;26.80;52.00;;;;;;7372612;32;20150;-57
2023/07/07 18:04:49;;;;;;;4.55;3.12;;;26.70;57.10;;;;;;7377543;32;20325;-57
2023/07/07 18:08:52;;;;;;;4.03;2.35;;;26.60;55.80;;;;;;7369807;32;20119;-57
2023/07/07 18:12:55;;;;;;;3.53;2.37;;;26.50;58.80;;;;;;7381156;32;20127;-58
2023/07/07 18:16:56;;;;;;;4.53;2.72;;;26.40;55.20;;;;;;7374586;32;20138;-57
2023/07/07 18:21:22;;;;;;;2.65;1.80;;;26.40;63.80;;;;;;7375537;32;20126;-57
2023/07/07 18:25:43;;;;;;;4.37;2.15;;;26.30;68.10;;;;;;7376631;32;20087;-57
2023/07/07 18:29:45;;;;;;;3.83;2.00;;;26.20;75.20;;;;;;7370392;32;20137;-57
2023/07/07 18:33:47;;;;;;;6.45;2.60;;;25.90;77.40;;;;;;7372404;32;20202;-57
2023/07/07 18:37:49;;;;;;;5.57;2.50;;;25.70;77.20;;;;;;7378301;32;20194;-57
2023/07/07 18:41:51;;;;;;;4.35;2.20;;;25.40;83.20;;;;;;7377191;32;20204;-57
2023/07/07 18:45:53;;;;;;;7.45;2.37;;;25.30;85.60;;;;;;7377518;32;20116;-57
2023/07/07 18:49:55;;;;;;;5.87;2.20;;;25.10;91.10;;;;;;7359359;32;20512;-57
2023/07/07 18:53:56;;;;;;;11.12;2.45;;;24.70;93.20;;;;;;7376758;32;20107;-57
2023/07/07 18:57:58;;;;;;;7.62;2.22;;;24.40;95.90;;;;;;7363565;32;20106;-57
2023/07/07 19:02:00;;;;;;;9.57;2.40;;;24.10;99.20;;;;;;7377694;32;20135;-57
2023/07/07 19:06:02;;;;;;;7.65;2.72;;;23.80;99.90;;;;;;7375508;32;20122;-57
2023/07/07 19:10:37;;;;;;;5.80;2.55;;;23.50;99.90;;;;;;7375080;32;20180;-57
2023/07/07 19:14:39;;;;;;;8.50;3.30;;;23.30;99.90;;;;;;7372697;32;20168;-57
2023/07/07 19:18:44;;;;;;;7.62;2.40;;;22.90;99.90;;;;;;7377066;32;20195;-57
2023/07/07 19:22:45;;;;;;;5.72;2.53;;;22.50;99.90;;;;;;7369060;32;20230;-58
2023/07/07 19:26:51;;;;;;;4.12;2.35;;;22.40;99.90;;;;;;7359222;32;20461;-57
2023/07/07 19:30:53;;;;;;;6.18;2.70;;;22.30;99.90;;;;;;7376995;32;20122;-57
2023/07/07 19:34:55;;;;;;;8.38;2.95;;;22.20;99.90;;;;;;7375593;32;20175;-57
2023/07/07 19:38:57;;;;;;;5.37;2.47;;;22.10;99.90;;;;;;7360792;32;20115;-57
2023/07/07 19:42:59;;;;;;;5.78;2.22;;;21.90;99.90;;;;;;7369084;32;20501;-57
2023/07/07 19:47:01;;;;;;;4.85;2.08;;;21.90;99.90;;;;;;7376897;32;20193;-57
2023/07/07 19:51:03;;;;;;;5.93;2.15;;;21.80;99.90;;;;;;7380268;32;20125;-57
2023/07/07 19:55:06;;;;;;;2.50;1.92;;;21.70;99.90;;;;;;7373091;32;20137;-57
2023/07/07 19:59:18;;;;;;;5.37;2.50;;;21.70;99.90;;;;;;7373746;32;20528;-56
2023/07/07 20:03:20;;;;;;;4.03;2.10;;;21.60;99.90;;;;;;7382118;32;20122;-56
2023/07/07 20:07:22;;;;;;;3.60;1.98;;;21.60;99.90;;;;;;7376488;32;20132;-56
2023/07/07 20:11:31;;;;;;;4.30;2.17;;;21.60;99.90;;;;;;7366227;32;20103;-56
2023/07/07 20:15:33;;;;;;;3.97;2.40;;;21.50;99.90;;;;;;7370263;32;20156;-56
2023/07/07 20:19:34;;;;;;;6.45;1.83;;;21.60;99.90;;;;;;7368847;32;20523;-55
2023/07/07 20:23:36;;;;;;;5.93;1.98;;;21.50;99.90;;;;;;7362216;32;20714;-56
2023/07/07 20:27:39;;;;;;;4.40;2.00;;;21.40;99.90;;;;;;7370690;32;20107;-56
2023/07/07 20:31:41;;;;;;;3.72;1.98;;;21.50;99.90;;;;;;7370249;32;20107;-56
2023/07/07 20:35:44;;;;;;;3.83;1.73;;;21.50;99.90;;;;;;7371959;32;20129;-56
2023/07/07 20:39:45;;;;;;;7.37;1.60;;;21.40;99.90;;;;;;7366648;32;20127;-56
2023/07/07 20:43:47;;;;;;;4.90;1.80;;;21.40;99.90;;;;;;7367691;32;20434;-55
2023/07/07 20:47:49;;;;;;;8.38;1.77;;;21.30;99.90;;;;;;7372957;32;20198;-55
2023/07/07 20:51:51;;;;;;;5.12;1.83;;;21.30;99.90;;;;;;7378203;32;20139;-55
2023/07/07 20:55:54;;;;;;;3.12;1.50;;;21.20;99.90;;;;;;7376276;32;20167;-56
2023/07/07 20:59:56;;;;;;;3.25;1.95;;;21.20;99.90;;;;;;7369941;32;20148;-55
2023/07/07 21:03:57;;;;;;;2.17;1.48;;;21.10;99.90;;;;;;7372634;32;20131;-56
2023/07/07 21:07:59;;;;;;;3.92;1.60;;;21.10;99.90;;;;;;7368975;32;20189;-56
2023/07/07 21:12:01;;;;;;;5.62;1.80;;;21.10;99.90;;;;;;7372727;32;20179;-56
2023/07/07 21:16:10;;;;;;;3.50;1.48;;;21.00;99.90;;;;;;7375151;32;20126;-55
2023/07/07 21:20:29;;;;;;;6.87;1.92;;;20.90;99.90;;;;;;7353135;32;20111;-56